createdAt,value
2017-09-27T00:00:01.164Z,91.56
2017-09-27T00:02:29.532Z,91.15
2017-09-27T00:04:58.632Z,92.60
2017-09-27T00:07:27.768Z,92.73
2017-09-27T00:09:56.105Z,93.48
2017-09-27T00:12:25.216Z,93.03
2017-09-27T00:14:54.355Z,92.68
2017-09-27T00:17:22.688Z,92.19
2017-09-27T00:19:51.831Z,91.97
2017-09-27T00:22:20.176Z,91.58
2017-09-27T00:24:48.524Z,91.24
2017-09-27T00:27:16.883Z,91.27
2017-09-27T00:29:45.215Z,91.07
2017-09-27T00:32:14.352Z,90.59
2017-09-27T00:34:42.679Z,90.36
2017-09-27T00:37:11.783Z,89.90
2017-09-27T00:39:41.540Z,89.71
2017-09-27T00:42:09.888Z,89.67
2017-09-27T00:44:38.253Z,90.74
2017-09-27T00:47:07.351Z,91.08
2017-09-27T00:49:36.459Z,91.96
2017-09-27T00:52:05.591Z,92.83
2017-09-27T00:54:33.931Z,91.56
2017-09-27T00:57:03.073Z,90.74
2017-09-27T00:59:31.416Z,90.83
2017-09-27T01:02:00.522Z,91.21
2017-09-27T01:04:28.876Z,90.61
2017-09-27T01:06:57.999Z,90.08
2017-09-27T01:09:26.368Z,89.90
2017-09-27T01:11:55.472Z,90.17
2017-09-27T01:14:24.581Z,90.65
2017-09-27T01:16:52.944Z,90.59
2017-09-27T01:19:22.041Z,90.39
2017-09-27T01:21:51.176Z,90.13
2017-09-27T01:24:19.520Z,90.06
2017-09-27T01:26:48.635Z,90.93
2017-09-27T01:29:17.008Z,90.16
2017-09-27T01:31:45.353Z,90.17
2017-09-27T01:34:13.726Z,91.10
2017-09-27T01:36:42.077Z,91.63
2017-09-27T01:39:10.444Z,91.91
2017-09-27T01:41:38.778Z,91.41
2017-09-27T01:44:07.125Z,91.83
2017-09-27T01:46:35.599Z,92.19
2017-09-27T01:49:03.931Z,92.03
2017-09-27T01:51:32.291Z,90.96
2017-09-27T01:54:00.640Z,91.19
2017-09-27T01:56:29.001Z,92.05
2017-09-27T01:58:57.334Z,91.99
2017-09-27T02:01:25.709Z,91.51
2017-09-27T02:03:54.045Z,90.94
2017-09-27T02:06:22.443Z,90.34
2017-09-27T02:08:50.815Z,90.57
2017-09-27T02:11:19.154Z,90.53
2017-09-27T02:13:47.520Z,90.34
2017-09-27T02:16:15.876Z,90.44
2017-09-27T02:18:44.260Z,90.87
2017-09-27T02:21:12.599Z,90.33
2017-09-27T02:23:41.700Z,90.14
2017-09-27T02:26:10.055Z,90.56
2017-09-27T02:28:39.167Z,89.76
2017-09-27T02:31:08.296Z,89.22
2017-09-27T02:33:36.635Z,89.75
2017-09-27T02:36:05.743Z,90.33
2017-09-27T02:38:34.880Z,90.86
2017-09-27T02:41:03.212Z,90.71
2017-09-27T02:43:32.393Z,91.44
2017-09-27T02:46:00.735Z,92.27
2017-09-27T02:48:29.067Z,92.69
2017-09-27T02:50:57.432Z,91.81
2017-09-27T02:53:25.771Z,91.23
2017-09-27T02:55:54.141Z,91.05
2017-09-27T02:58:22.476Z,90.46
2017-09-27T03:00:50.819Z,90.19
2017-09-27T03:03:19.195Z,89.89
2017-09-27T03:05:47.529Z,89.68
2017-09-27T03:08:15.887Z,89.77
2017-09-27T03:10:44.236Z,89.71
2017-09-27T03:13:12.580Z,89.65
2017-09-27T03:15:41.818Z,90.98
2017-09-27T03:18:10.147Z,90.66
2017-09-27T03:20:39.276Z,91.47
2017-09-27T03:23:07.605Z,92.32
2017-09-27T03:25:35.978Z,92.29
2017-09-27T03:28:04.324Z,93.15
2017-09-27T03:30:32.726Z,93.17
2017-09-27T03:33:01.060Z,93.36
2017-09-27T03:35:30.184Z,92.48
2017-09-27T03:37:58.519Z,91.85
2017-09-27T03:40:26.897Z,91.44
2017-09-27T03:42:55.236Z,91.42
2017-09-27T03:45:23.594Z,91.33
2017-09-27T03:47:51.959Z,91.67
2017-09-27T03:50:21.096Z,91.72
2017-09-27T03:52:49.433Z,92.37
2017-09-27T03:55:18.536Z,92.08
2017-09-27T03:57:47.665Z,91.68
2017-09-27T04:00:15.995Z,91.45
2017-09-27T04:02:44.355Z,90.79
2017-09-27T04:05:12.687Z,90.96
2017-09-27T04:07:41.024Z,91.07
2017-09-27T04:10:09.390Z,92.16
2017-09-27T04:12:37.734Z,91.44
2017-09-27T04:15:06.092Z,91.52
2017-09-27T04:17:35.193Z,91.33
2017-09-27T04:20:04.305Z,94.31
2017-09-27T04:22:32.668Z,94.08
2017-09-27T04:25:01.776Z,93.21
2017-09-27T04:27:30.912Z,94.22
2017-09-27T04:29:59.260Z,93.44
2017-09-27T04:32:27.603Z,93.43
2017-09-27T04:34:55.964Z,93.36
2017-09-27T04:37:24.298Z,92.81
2017-09-27T04:39:53.429Z,92.30
2017-09-27T04:42:21.769Z,92.15
2017-09-27T04:44:50.870Z,92.53
2017-09-27T04:47:19.998Z,91.66
2017-09-27T04:49:49.375Z,91.90
2017-09-27T04:52:18.524Z,92.44
2017-09-27T04:54:46.864Z,92.61
2017-09-27T04:57:15.196Z,92.02
2017-09-27T04:59:43.555Z,91.24
2017-09-27T05:02:11.900Z,91.11
2017-09-27T05:04:40.257Z,91.20
2017-09-27T05:07:09.381Z,91.24
2017-09-27T05:09:37.716Z,92.48
2017-09-27T05:12:06.081Z,92.94
2017-09-27T05:14:34.419Z,93.12
2017-09-27T05:17:02.793Z,92.31
2017-09-27T05:19:31.899Z,92.13
2017-09-27T05:22:00.242Z,92.34
2017-09-27T05:24:28.616Z,93.01
2017-09-27T05:26:56.957Z,92.53
2017-09-27T05:29:25.353Z,91.98
2017-09-27T05:31:53.695Z,92.13
2017-09-27T05:34:22.832Z,91.49
2017-09-27T05:36:51.960Z,91.21
2017-09-27T05:39:20.328Z,90.32
2017-09-27T05:41:49.468Z,89.40
2017-09-27T05:44:18.601Z,89.08
2017-09-27T05:46:46.932Z,90.01
2017-09-27T05:49:16.032Z,91.10
2017-09-27T05:51:45.160Z,90.63
2017-09-27T05:54:13.497Z,90.79
2017-09-27T05:56:41.880Z,90.53
2017-09-27T05:59:10.224Z,90.21
2017-09-27T06:01:38.568Z,90.04
2017-09-27T06:04:06.944Z,89.52
2017-09-27T06:06:36.049Z,90.52
2017-09-27T06:09:04.428Z,90.30
2017-09-27T06:11:32.777Z,89.99
2017-09-27T06:14:01.115Z,91.71
2017-09-27T06:16:29.489Z,92.26
2017-09-27T06:18:57.827Z,92.19
2017-09-27T06:21:26.960Z,91.32
2017-09-27T06:23:55.291Z,90.69
2017-09-27T06:26:23.632Z,90.38
2017-09-27T06:28:52.008Z,90.20
2017-09-27T06:31:20.360Z,90.73
2017-09-27T06:33:48.840Z,91.31
2017-09-27T06:36:17.944Z,90.25
2017-09-27T06:38:47.080Z,89.47
2017-09-27T06:41:15.428Z,89.51
2017-09-27T06:43:43.767Z,89.63
2017-09-27T06:46:12.132Z,89.60
2017-09-27T06:48:40.472Z,89.26
2017-09-27T06:51:08.837Z,89.24
2017-09-27T06:53:37.944Z,88.93
2017-09-27T06:56:06.296Z,89.13
2017-09-27T06:58:34.677Z,88.71
2017-09-27T07:01:03.008Z,89.00
2017-09-27T07:03:31.376Z,88.39
2017-09-27T07:05:59.707Z,89.14
2017-09-27T07:08:28.043Z,90.14
2017-09-27T07:10:56.404Z,89.91
2017-09-27T07:13:25.508Z,89.34
2017-09-27T07:15:53.876Z,88.85
2017-09-27T07:18:22.976Z,88.22
2017-09-27T07:20:52.083Z,87.55
2017-09-27T07:23:21.216Z,86.32
2017-09-27T07:25:49.587Z,87.41
2017-09-27T07:28:17.919Z,87.49
2017-09-27T07:30:46.258Z,87.47
2017-09-27T07:33:14.628Z,88.87
2017-09-27T07:35:42.995Z,89.04
2017-09-27T07:38:11.392Z,89.56
2017-09-27T07:40:39.736Z,89.67
2017-09-27T07:43:08.886Z,89.05
2017-09-27T07:45:37.233Z,87.52
2017-09-27T07:48:05.597Z,89.92
2017-09-27T07:50:34.704Z,89.27
2017-09-27T07:53:03.044Z,88.40
2017-09-27T07:55:31.403Z,88.13
2017-09-27T07:57:59.744Z,87.97
2017-09-27T08:00:28.112Z,88.22
2017-09-27T08:02:57.216Z,87.48
2017-09-27T08:05:26.320Z,85.60
2017-09-27T08:07:54.681Z,84.18
2017-09-27T08:10:23.788Z,84.20
2017-09-27T08:12:52.964Z,84.32
2017-09-27T08:15:21.304Z,83.05
2017-09-27T08:17:49.642Z,83.09
2017-09-27T08:20:18.763Z,81.64
2017-09-27T08:22:47.095Z,82.87
2017-09-27T08:25:15.475Z,83.52
2017-09-27T08:27:44.059Z,82.97
2017-09-27T08:30:12.407Z,82.37
2017-09-27T08:32:40.767Z,82.11
2017-09-27T08:35:09.160Z,80.79
2017-09-27T08:37:37.528Z,81.33
2017-09-27T08:40:05.864Z,80.57
2017-09-27T08:42:34.209Z,79.04
2017-09-27T08:45:02.572Z,78.44
2017-09-27T08:47:30.909Z,78.00
2017-09-27T08:49:59.623Z,77.62
2017-09-27T08:52:28.721Z,77.85
2017-09-27T08:54:57.816Z,76.42
2017-09-27T08:57:26.940Z,75.59
2017-09-27T08:59:55.295Z,75.70
2017-09-27T09:02:24.434Z,76.26
2017-09-27T09:04:52.784Z,75.66
2017-09-27T09:07:21.885Z,74.98
2017-09-27T09:09:51.028Z,74.20
2017-09-27T09:12:19.365Z,74.64
2017-09-27T09:14:48.497Z,74.88
2017-09-27T09:17:16.842Z,73.38
2017-09-27T09:19:45.235Z,73.20
2017-09-27T09:22:13.601Z,73.39
2017-09-27T09:24:42.699Z,73.64
2017-09-27T09:27:11.820Z,73.20
2017-09-27T09:29:40.153Z,73.77
2017-09-27T09:32:09.245Z,74.06
2017-09-27T09:34:38.205Z,75.21
2017-09-27T09:37:06.540Z,73.42
2017-09-27T09:39:35.675Z,72.87
2017-09-27T09:42:04.024Z,72.89
2017-09-27T09:44:33.153Z,72.21
2017-09-27T09:47:01.486Z,73.74
2017-09-27T09:49:30.597Z,72.57
2017-09-27T09:51:59.732Z,71.47
2017-09-27T09:54:28.076Z,72.80
2017-09-27T09:56:57.196Z,72.68
2017-09-27T09:59:25.535Z,72.90
2017-09-27T10:01:53.896Z,72.42
2017-09-27T10:04:22.233Z,70.67
2017-09-27T10:06:50.568Z,71.21
2017-09-27T10:09:18.927Z,68.51
2017-09-27T10:11:47.262Z,69.48
2017-09-27T10:14:16.396Z,69.60
2017-09-27T10:16:44.729Z,70.04
2017-09-27T10:19:13.832Z,71.81
2017-09-27T10:21:42.964Z,73.68
2017-09-27T10:24:11.303Z,72.34
2017-09-27T10:26:40.423Z,72.35
2017-09-27T10:29:08.752Z,71.31
2017-09-27T10:31:37.101Z,71.18
2017-09-27T10:34:05.475Z,69.63
2017-09-27T10:36:33.818Z,67.61
2017-09-27T10:39:02.949Z,69.88
2017-09-27T10:41:31.271Z,70.73
2017-09-27T10:43:59.605Z,69.95
2017-09-27T10:46:27.978Z,68.62
2017-09-27T10:48:56.309Z,68.46
2017-09-27T10:51:24.677Z,68.46
2017-09-27T10:53:53.019Z,67.14
2017-09-27T10:56:21.359Z,67.70
2017-09-27T10:58:49.720Z,64.15
2017-09-27T11:01:18.052Z,64.51
2017-09-27T11:03:47.188Z,64.75
2017-09-27T11:06:15.524Z,68.06
2017-09-27T11:08:44.636Z,65.79
2017-09-27T11:11:12.992Z,64.13
2017-09-27T11:13:42.119Z,67.99
2017-09-27T11:16:10.519Z,68.78
2017-09-27T11:18:38.843Z,66.96
2017-09-27T11:21:07.173Z,67.60
2017-09-27T11:23:35.535Z,64.62
2017-09-27T11:26:03.869Z,64.31
2017-09-27T11:28:32.232Z,64.75
2017-09-27T11:31:00.561Z,64.13
2017-09-27T11:33:29.661Z,67.01
2017-09-27T11:35:58.794Z,64.00
2017-09-27T11:38:27.908Z,63.47
2017-09-27T11:40:56.268Z,60.25
2017-09-27T11:43:24.594Z,60.03
2017-09-27T11:45:52.928Z,61.05
2017-09-27T11:48:21.288Z,58.89
2017-09-27T11:50:49.626Z,58.18
2017-09-27T11:53:17.992Z,57.98
2017-09-27T11:55:46.330Z,56.80
2017-09-27T11:58:14.665Z,58.06
2017-09-27T12:00:43.022Z,58.22
2017-09-27T12:03:11.353Z,54.46
2017-09-27T12:05:40.481Z,58.83
2017-09-27T12:08:08.809Z,57.25
2017-09-27T12:10:37.144Z,57.33
2017-09-27T12:13:05.504Z,55.46
2017-09-27T12:15:34.612Z,53.98
2017-09-27T12:18:04.384Z,54.26
2017-09-27T12:20:32.714Z,54.03
2017-09-27T12:23:01.076Z,54.87
2017-09-27T12:25:30.172Z,56.41
2017-09-27T12:27:59.275Z,55.99
2017-09-27T12:30:27.639Z,52.77
2017-09-27T12:32:56.750Z,54.70
2017-09-27T12:35:25.872Z,53.83
2017-09-27T12:37:54.210Z,52.05
2017-09-27T12:40:23.335Z,50.43
2017-09-27T12:42:51.700Z,49.35
2017-09-27T12:45:20.795Z,49.77
2017-09-27T12:47:49.926Z,47.61
2017-09-27T12:50:18.255Z,47.24
2017-09-27T12:52:46.584Z,49.24
2017-09-27T12:55:14.944Z,47.50
2017-09-27T12:57:44.044Z,47.73
2017-09-27T13:00:12.384Z,45.15
2017-09-27T13:02:40.760Z,44.10
2017-09-27T13:05:09.091Z,45.44
2017-09-27T13:07:37.457Z,43.86
2017-09-27T13:10:06.556Z,43.76
2017-09-27T13:12:35.656Z,43.45
2017-09-27T13:15:04.781Z,41.97
2017-09-27T13:17:33.116Z,43.90
2017-09-27T13:20:02.246Z,43.71
2017-09-27T13:22:30.579Z,41.04
2017-09-27T13:24:58.914Z,42.54
2017-09-27T13:27:27.282Z,44.50
2017-09-27T13:29:55.625Z,43.89
2017-09-27T13:32:23.988Z,42.67
2017-09-27T13:34:52.311Z,41.52
2017-09-27T13:37:21.412Z,40.54
2017-09-27T13:39:50.534Z,41.94
2017-09-27T13:42:18.896Z,39.44
2017-09-27T13:44:48.032Z,40.07
2017-09-27T13:47:16.359Z,41.23
2017-09-27T13:49:45.460Z,40.31
2017-09-27T13:52:14.611Z,38.71
2017-09-27T13:54:42.940Z,38.24
2017-09-27T13:57:12.074Z,36.73
2017-09-27T13:59:40.404Z,38.37
2017-09-27T14:02:08.732Z,39.91
2017-09-27T14:04:37.085Z,38.89
2017-09-27T14:07:05.424Z,38.13
2017-09-27T14:09:33.802Z,36.96
2017-09-27T14:12:02.140Z,35.97
2017-09-27T14:14:30.471Z,35.73
2017-09-27T14:16:58.823Z,36.99
2017-09-27T14:19:27.167Z,41.11
2017-09-27T14:21:56.312Z,42.54
2017-09-27T14:24:24.841Z,44.79
2017-09-27T14:26:53.936Z,46.79
2017-09-27T14:29:23.067Z,48.80
2017-09-27T14:31:51.404Z,50.94
2017-09-27T14:34:19.769Z,52.00
2017-09-27T14:36:48.104Z,51.85
2017-09-27T14:39:16.439Z,51.88
2017-09-27T14:41:44.865Z,49.88
2017-09-27T14:44:13.201Z,47.06
2017-09-27T14:46:41.564Z,45.57
2017-09-27T14:49:09.903Z,46.60
2017-09-27T14:51:38.240Z,47.43
2017-09-27T14:54:06.620Z,48.56
2017-09-27T14:56:35.728Z,50.05
2017-09-27T14:59:04.860Z,52.12
2017-09-27T15:01:33.210Z,50.52
2017-09-27T15:04:02.351Z,48.39
2017-09-27T15:06:30.688Z,46.81
2017-09-27T15:08:59.804Z,45.41
2017-09-27T15:11:28.929Z,47.56
2017-09-27T15:13:57.273Z,49.64
2017-09-27T15:16:26.416Z,50.07
2017-09-27T15:18:54.750Z,49.85
2017-09-27T15:21:23.108Z,51.88
2017-09-27T15:23:51.474Z,52.73
2017-09-27T15:26:19.827Z,53.44
2017-09-27T15:28:48.187Z,53.83
2017-09-27T15:31:16.528Z,55.48
2017-09-27T15:33:44.878Z,55.59
2017-09-27T15:36:14.294Z,56.20
2017-09-27T15:38:43.410Z,58.55
2017-09-27T15:41:11.790Z,58.92
2017-09-27T15:43:40.136Z,59.83
2017-09-27T15:46:08.516Z,60.46
2017-09-27T15:48:36.875Z,61.23
2017-09-27T15:51:05.243Z,60.84
2017-09-27T15:53:34.344Z,61.09
2017-09-27T15:56:03.461Z,60.54
2017-09-27T15:58:31.828Z,60.40
2017-09-27T16:01:00.170Z,60.13
2017-09-27T16:03:28.525Z,60.96
2017-09-27T16:05:56.865Z,61.86
2017-09-27T16:08:25.994Z,62.81
2017-09-27T16:10:54.348Z,63.60
2017-09-27T16:13:22.726Z,64.56
2017-09-27T16:15:51.833Z,65.52
2017-09-27T16:18:20.169Z,66.67
2017-09-27T16:20:48.614Z,67.60
2017-09-27T16:23:16.950Z,68.40
2017-09-27T16:25:46.076Z,68.91
2017-09-27T16:28:14.420Z,70.01
2017-09-27T16:30:42.761Z,70.25
2017-09-27T16:33:11.142Z,70.67
2017-09-27T16:35:39.486Z,70.89
2017-09-27T16:38:07.848Z,71.56
2017-09-27T16:40:36.948Z,71.92
2017-09-27T16:43:06.045Z,72.66
2017-09-27T16:45:35.172Z,73.17
2017-09-27T16:48:03.504Z,73.26
2017-09-27T16:50:31.864Z,73.53
2017-09-27T16:53:00.192Z,74.06
2017-09-27T16:55:29.299Z,74.47
2017-09-27T16:57:58.436Z,74.85
2017-09-27T17:00:26.777Z,75.64
2017-09-27T17:02:55.156Z,76.02
2017-09-27T17:05:24.260Z,76.42
2017-09-27T17:07:52.613Z,76.66
2017-09-27T17:10:21.749Z,77.04
2017-09-27T17:12:50.087Z,77.34
2017-09-27T17:15:18.468Z,78.13
2017-09-27T17:17:46.809Z,78.33
2017-09-27T17:20:15.153Z,78.63
2017-09-27T17:22:44.288Z,78.38
2017-09-27T17:25:12.640Z,78.88
2017-09-27T17:27:41.004Z,80.17
2017-09-27T17:30:10.105Z,80.07
2017-09-27T17:32:39.221Z,80.21
2017-09-27T17:35:07.609Z,80.32
2017-09-27T17:37:35.965Z,80.50
2017-09-27T17:40:05.108Z,80.73
2017-09-27T17:42:33.493Z,80.32
2017-09-27T17:45:01.812Z,80.14
2017-09-27T17:47:30.176Z,82.12
2017-09-27T17:49:58.524Z,83.74
2017-09-27T17:52:26.913Z,84.05
2017-09-27T17:54:55.270Z,84.12
2017-09-27T17:57:23.620Z,84.17
2017-09-27T17:59:52.759Z,83.76
2017-09-27T18:02:21.620Z,83.56
2017-09-27T18:04:56.205Z,83.05
2017-09-27T18:07:30.144Z,83.76
2017-09-27T18:23:22.946Z,84.38
2017-09-27T18:25:51.301Z,85.78
2017-09-27T18:28:19.668Z,84.91
2017-09-27T18:30:48.780Z,86.90
2017-09-27T18:33:17.120Z,87.65
2017-09-27T18:35:45.676Z,86.41
2017-09-27T18:38:14.048Z,86.13
2017-09-27T18:40:42.414Z,85.61
2017-09-27T18:43:10.758Z,86.06
2017-09-27T18:45:39.128Z,86.80
2017-09-27T18:48:07.473Z,86.61
2017-09-27T18:50:35.828Z,85.85
2017-09-27T18:53:04.194Z,85.29
2017-09-27T18:55:32.565Z,84.76
2017-09-27T18:58:01.708Z,84.24
2017-09-27T19:00:30.057Z,83.50
2017-09-27T19:02:59.168Z,82.98
2017-09-27T19:05:27.545Z,82.84
2017-09-27T19:07:55.905Z,82.48
2017-09-27T19:10:25.529Z,82.31
2017-09-27T19:12:53.954Z,82.40
2017-09-27T19:15:22.337Z,84.51
2017-09-27T19:17:50.724Z,84.93
2017-09-27T19:20:19.128Z,84.10
2017-09-27T19:22:47.509Z,83.77
2017-09-27T19:25:15.859Z,83.16
2017-09-27T19:27:44.198Z,82.52
2017-09-27T19:30:12.580Z,83.00
2017-09-27T19:32:41.138Z,83.49
2017-09-27T19:35:09.669Z,83.70
2017-09-27T19:37:38.098Z,84.41
2017-09-27T19:40:07.085Z,84.53
2017-09-27T19:42:36.430Z,86.45
2017-09-27T19:45:04.919Z,87.43
2017-09-27T19:47:33.569Z,88.96
2017-09-27T19:50:02.138Z,89.22
2017-09-27T19:52:30.671Z,88.26
2017-09-27T19:54:59.241Z,87.56
2017-09-27T19:57:28.477Z,86.81
2017-09-27T19:59:56.922Z,86.95
2017-09-27T20:02:27.300Z,87.35
2017-09-27T20:04:55.845Z,87.47
2017-09-27T20:07:24.495Z,87.97
2017-09-27T20:09:53.980Z,87.50
2017-09-27T20:12:22.477Z,87.43
2017-09-27T20:14:50.928Z,87.64
2017-09-27T20:17:19.410Z,87.13
2017-09-27T20:19:48.225Z,86.57
2017-09-27T20:22:16.751Z,85.87
2017-09-27T20:24:45.537Z,85.70
2017-09-27T20:27:14.648Z,85.35
2017-09-27T20:29:43.800Z,85.43
2017-09-27T20:32:12.143Z,85.35
2017-09-27T20:34:40.522Z,85.38
2017-09-27T20:37:08.887Z,85.94
2017-09-27T20:39:37.993Z,85.36
2017-09-27T20:42:07.309Z,85.17
2017-09-27T20:44:35.727Z,85.71
2017-09-27T20:47:04.124Z,86.34
2017-09-27T20:49:32.505Z,86.79
2017-09-27T20:52:00.852Z,86.16
2017-09-27T20:54:29.225Z,86.60
2017-09-27T20:56:57.568Z,87.04
2017-09-27T20:59:26.672Z,88.46
2017-09-27T21:01:55.820Z,87.60
2017-09-27T21:04:25.529Z,86.80
2017-09-27T21:06:53.916Z,87.11
2017-09-27T21:09:22.245Z,87.16
2017-09-27T21:11:51.356Z,86.45
2017-09-27T21:14:19.720Z,86.82
2017-09-27T21:16:48.826Z,87.21
2017-09-27T21:19:17.958Z,89.83
2017-09-27T21:21:46.296Z,89.95
2017-09-27T21:24:15.414Z,90.01
2017-09-27T21:26:43.786Z,90.49
2017-09-27T21:29:12.899Z,88.92
2017-09-27T21:31:41.284Z,88.15
2017-09-27T21:34:09.660Z,88.41
2017-09-27T21:36:38.017Z,87.56
2017-09-27T21:39:06.391Z,87.07
2017-09-27T21:41:35.508Z,86.87
2017-09-27T21:44:03.890Z,87.12
2017-09-27T21:46:33.014Z,87.21
2017-09-27T21:49:02.137Z,87.50
2017-09-27T21:51:30.514Z,87.87
2017-09-27T21:53:58.847Z,87.91
2017-09-27T21:56:28.012Z,87.83
2017-09-27T21:58:56.573Z,87.94
2017-09-27T22:01:24.912Z,88.17
2017-09-27T22:03:54.050Z,88.84
2017-09-27T22:06:22.401Z,89.48
2017-09-27T22:08:50.768Z,89.85
2017-09-27T22:11:20.044Z,90.12
2017-09-27T22:13:48.422Z,90.64
2017-09-27T22:16:16.764Z,90.70
2017-09-27T22:18:45.148Z,90.61
2017-09-27T22:21:13.494Z,90.71
2017-09-27T22:23:42.603Z,90.40
2017-09-27T22:26:10.994Z,90.54
2017-09-27T22:28:39.328Z,90.35
2017-09-27T22:31:07.721Z,90.67
2017-09-27T22:33:36.860Z,91.86
2017-09-27T22:36:05.204Z,91.44
2017-09-27T22:38:34.338Z,90.85
2017-09-27T22:41:02.688Z,90.45
2017-09-27T22:43:31.829Z,90.32
2017-09-27T22:46:00.160Z,90.01
2017-09-27T22:48:29.370Z,90.75
2017-09-27T22:50:58.500Z,90.83
2017-09-27T22:53:26.828Z,90.29
2017-09-27T22:55:55.195Z,90.23
2017-09-27T22:58:23.543Z,90.55
2017-09-27T23:00:51.897Z,90.77
2017-09-27T23:03:20.281Z,92.24
2017-09-27T23:05:48.638Z,91.97
2017-09-27T23:08:17.791Z,91.77
2017-09-27T23:10:46.144Z,91.97
2017-09-27T23:13:14.490Z,91.94
2017-09-27T23:15:43.628Z,91.38
2017-09-27T23:18:11.968Z,91.20
2017-09-27T23:20:41.099Z,90.70
2017-09-27T23:23:09.439Z,90.78
2017-09-27T23:25:37.788Z,90.56
2017-09-27T23:28:06.150Z,92.08
2017-09-27T23:30:34.507Z,91.30
2017-09-27T23:33:03.642Z,91.11
2017-09-27T23:35:31.983Z,90.72
2017-09-27T23:38:01.072Z,90.21
2017-09-27T23:40:30.196Z,90.33
2017-09-27T23:42:58.523Z,90.22
2017-09-27T23:45:26.885Z,89.78
2017-09-27T23:47:55.220Z,90.00
2017-09-27T23:50:24.320Z,89.95
2017-09-27T23:52:53.448Z,91.45
2017-09-27T23:55:21.782Z,90.87
2017-09-27T23:57:50.931Z,91.19
